Time;durP1;ratioP1;P1;durP2;ratioP2;P2;SDS_P1;SDS_P2;PMS_P1;PMS_P2;Temp;Humidity;BMP_temperature;BMP_pressure;BME280_temperature;BME280_humidity;BME280_pressure;Samples;Min_cycle;Max_cycle;Signal;HPM_P1;HPM_P2
2021/11/04 00:01:09;;;;;;;;;;;15.70;99.90;;;;;;4994465;28;1284;-56
2021/11/04 00:03:35;;;;;;;;;;;15.70;99.90;;;;;;4998592;28;1907;-56
2021/11/04 00:06:01;;;;;;;;;;;15.60;99.90;;;;;;4998182;28;853;-56
2021/11/04 00:08:27;;;;;;;;;;;15.50;99.90;;;;;;4998450;28;1087;-56
2021/11/04 00:10:54;;;;;;;;;;;15.50;99.90;;;;;;4998232;28;828;-56
2021/11/04 00:13:20;;;;;;;;;;;15.40;99.90;;;;;;4998459;28;871;-56
2021/11/04 00:15:46;;;;;;;;;;;15.40;99.90;;;;;;4998445;28;841;-56
2021/11/04 00:18:11;;;;;;;;;;;15.30;99.90;;;;;;4998492;28;779;-56
2021/11/04 00:20:38;;;;;;;;;;;15.30;99.90;;;;;;4998014;28;883;-56
2021/11/04 00:23:04;;;;;;;;;;;15.20;99.90;;;;;;4939558;29;1969;-56
2021/11/04 00:25:30;;;;;;;;;;;15.20;99.90;;;;;;4923692;29;1079;-56
2021/11/04 00:27:56;;;;;;;;;;;15.10;99.90;;;;;;4939520;29;957;-56
2021/11/04 00:30:22;;;;;;;;;;;15.00;99.90;;;;;;4938804;29;855;-56
2021/11/04 00:32:50;;;;;;;;;;;15.00;99.90;;;;;;4938252;29;830;-57
2021/11/04 00:35:17;;;;;;;;;;;14.90;99.90;;;;;;4938838;29;1000;-57
2021/11/04 00:37:43;;;;;;;;;;;14.90;99.90;;;;;;4939190;29;1027;-57
2021/11/04 00:40:10;;;;;;;;;;;14.90;99.90;;;;;;4939179;29;891;-56
2021/11/04 00:42:36;;;;;;;;;;;14.80;99.90;;;;;;4938891;29;1895;-57
2021/11/04 00:45:03;;;;;;;;;;;14.80;99.90;;;;;;4938699;29;811;-57
2021/11/04 00:47:29;;;;;;;;;;;14.80;99.90;;;;;;4938846;29;1119;-57
2021/11/04 00:49:55;;;;;;;;;;;14.70;99.90;;;;;;4938917;29;780;-56
2021/11/04 00:52:21;;;;;;;;;;;14.70;99.90;;;;;;4939031;29;959;-57
2021/11/04 00:54:47;;;;;;;;;;;14.70;99.90;;;;;;4985559;28;847;-56
2021/11/04 00:57:13;;;;;;;;;;;14.60;99.90;;;;;;4997833;28;1019;-56
2021/11/04 00:59:38;;;;;;;;;;;14.60;99.90;;;;;;4979630;28;1040;-57
2021/11/04 01:02:04;;;;;;;;;;;14.60;99.90;;;;;;4996442;28;1906;-57
2021/11/04 01:04:30;;;;;;;;;;;14.60;99.90;;;;;;4995157;28;1666;-56
2021/11/04 01:06:56;;;;;;;;;;;14.50;99.90;;;;;;4997154;28;814;-56
2021/11/04 01:09:22;;;;;;;;;;;14.50;99.90;;;;;;4997559;28;969;-56
2021/11/04 01:11:48;;;;;;;;;;;14.50;99.90;;;;;;4997381;28;873;-57
2021/11/04 01:14:14;;;;;;;;;;;14.40;99.90;;;;;;4997190;28;1037;-56
2021/11/04 01:16:40;;;;;;;;;;;14.40;99.90;;;;;;4997172;28;851;-56
2021/11/04 01:19:08;;;;;;;;;;;14.40;99.90;;;;;;4997030;28;780;-56
2021/11/04 01:21:34;;;;;;;;;;;14.40;99.90;;;;;;4996982;28;876;-57
2021/11/04 01:24:00;;;;;;;;;;;14.30;99.90;;;;;;4994853;28;1985;-56
2021/11/04 01:26:26;;;;;;;;;;;14.30;99.90;;;;;;4997222;28;842;-57
2021/11/04 01:28:53;;;;;;;;;;;14.30;99.90;;;;;;4996625;28;942;-57
2021/11/04 01:31:34;;;;;;;;;;;14.30;99.90;;;;;;4996764;28;756;-56
2021/11/04 01:34:01;;;;;;;;;;;14.20;99.90;;;;;;4995277;28;1501;-56
2021/11/04 01:36:27;;;;;;;;;;;14.20;99.90;;;;;;4964627;28;931;-56
2021/11/04 01:38:54;;;;;;;;;;;14.20;99.90;;;;;;4996991;28;807;-56
2021/11/04 01:41:21;;;;;;;;;;;14.20;99.90;;;;;;4996792;28;1491;-56
2021/11/04 01:43:47;;;;;;;;;;;14.20;99.90;;;;;;4996261;28;1914;-56
2021/11/04 01:46:13;;;;;;;;;;;14.10;99.90;;;;;;4994442;28;1378;-56
2021/11/04 01:48:39;;;;;;;;;;;14.10;99.90;;;;;;4996992;28;1124;-56
2021/11/04 01:51:05;;;;;;;;;;;14.10;99.90;;;;;;4996547;28;810;-56
2021/11/04 01:53:31;;;;;;;;;;;14.10;99.90;;;;;;4996601;28;834;-57
2021/11/04 01:55:57;;;;;;;;;;;14.10;99.90;;;;;;4996770;28;1211;-57
2021/11/04 01:58:23;;;;;;;;;;;14.00;99.90;;;;;;4996685;28;911;-56
2021/11/04 02:00:49;;;;;;;;;;;14.00;99.90;;;;;;4996332;28;1044;-56
2021/11/04 02:03:21;;;;;;;;;;;14.00;99.90;;;;;;4996426;28;1973;-56
2021/11/04 02:06:11;;;;;;;;;;;14.00;99.90;;;;;;4996239;28;849;-56
2021/11/04 02:08:47;;;;;;;;;;;14.00;99.90;;;;;;4996697;28;809;-56
2021/11/04 02:11:15;;;;;;;;;;;14.00;99.90;;;;;;4964757;28;1010;-56
2021/11/04 02:13:46;;;;;;;;;;;13.90;99.90;;;;;;4995899;28;942;-56
2021/11/04 02:16:13;;;;;;;;;;;13.90;99.90;;;;;;4992055;28;897;-56
2021/11/04 02:18:39;;;;;;;;;;;13.90;99.90;;;;;;4992179;28;855;-56
2021/11/04 02:21:05;;;;;;;;;;;13.90;99.90;;;;;;4996511;28;794;-56
2021/11/04 02:23:38;;;;;;;;;;;13.90;99.90;;;;;;4996690;28;1969;-56
2021/11/04 02:26:05;;;;;;;;;;;13.90;99.90;;;;;;4996653;28;790;-54
2021/11/04 02:28:33;;;;;;;;;;;13.80;99.90;;;;;;4996296;28;926;-54
2021/11/04 02:31:00;;;;;;;;;;;13.80;99.90;;;;;;4996403;28;849;-54
2021/11/04 02:33:26;;;;;;;;;;;13.80;99.90;;;;;;4996264;28;848;-54
2021/11/04 02:35:53;;;;;;;;;;;13.80;99.90;;;;;;4995993;28;876;-54
2021/11/04 02:38:19;;;;;;;;;;;13.80;99.90;;;;;;4995788;28;983;-54
2021/11/04 02:40:46;;;;;;;;;;;13.80;99.90;;;;;;4996222;28;890;-54
2021/11/04 02:43:13;;;;;;;;;;;13.80;99.90;;;;;;4996202;28;1910;-54
2021/11/04 02:45:39;;;;;;;;;;;13.70;99.90;;;;;;4990882;28;856;-54
2021/11/04 02:48:06;;;;;;;;;;;13.70;99.90;;;;;;4979576;28;1504;-54
2021/11/04 02:50:32;;;;;;;;;;;13.70;99.90;;;;;;4974195;28;1095;-54
2021/11/04 02:52:59;;;;;;;;;;;13.70;99.90;;;;;;4990567;28;952;-54
2021/11/04 02:55:32;;;;;;;;;;;13.70;99.90;;;;;;4997771;28;938;-54
2021/11/04 02:58:02;;;;;;;;;;;13.70;99.90;;;;;;4998512;28;834;-54
2021/11/04 03:00:28;;;;;;;;;;;13.70;99.90;;;;;;4998755;28;1215;-54
2021/11/04 03:02:54;;;;;;;;;;;13.60;99.90;;;;;;4999762;28;1979;-55
2021/11/04 03:05:19;;;;;;;;;;;13.60;99.90;;;;;;4999485;28;1067;-54
2021/11/04 03:07:45;;;;;;;;;;;13.60;99.90;;;;;;4999346;28;860;-54
2021/11/04 03:10:12;;;;;;;;;;;13.60;99.90;;;;;;4999930;28;865;-54
2021/11/04 03:12:37;;;;;;;;;;;13.60;99.90;;;;;;5000072;28;1004;-54
2021/11/04 03:15:07;;;;;;;;;;;13.60;99.90;;;;;;4964663;28;1006;-55
2021/11/04 03:17:34;;;;;;;;;;;13.60;99.90;;;;;;4982218;28;1000;-54
2021/11/04 03:20:00;;;;;;;;;;;13.60;99.90;;;;;;4982891;28;848;-54
2021/11/04 03:22:26;;;;;;;;;;;13.60;99.90;;;;;;4999081;28;1971;-54
2021/11/04 03:24:52;;;;;;;;;;;13.60;99.90;;;;;;4998988;28;905;-55
2021/11/04 03:27:20;;;;;;;;;;;13.50;99.90;;;;;;4999519;28;843;-54
2021/11/04 03:29:47;;;;;;;;;;;13.50;99.90;;;;;;4998923;28;1100;-54
2021/11/04 03:32:17;;;;;;;;;;;13.50;99.90;;;;;;4999302;28;830;-54
2021/11/04 03:34:44;;;;;;;;;;;13.50;99.90;;;;;;4999079;28;820;-54
2021/11/04 03:37:11;;;;;;;;;;;13.50;99.90;;;;;;4999094;28;978;-54
2021/11/04 03:39:39;;;;;;;;;;;13.50;99.90;;;;;;4998252;28;1032;-54
2021/11/04 03:42:05;;;;;;;;;;;13.50;99.90;;;;;;5013267;28;1130;-54
2021/11/04 03:44:32;;;;;;;;;;;13.40;99.90;;;;;;4998997;28;1970;-54
2021/11/04 03:46:59;;;;;;;;;;;13.50;99.90;;;;;;4998703;28;891;-54
2021/11/04 03:49:29;;;;;;;;;;;13.50;99.90;;;;;;4998197;28;1126;-54
2021/11/04 03:51:55;;;;;;;;;;;13.40;99.90;;;;;;4998609;28;950;-54
2021/11/04 03:54:22;;;;;;;;;;;13.40;99.90;;;;;;4998743;28;847;-54
2021/11/04 03:56:52;;;;;;;;;;;13.40;99.90;;;;;;4998596;28;840;-54
2021/11/04 03:59:18;;;;;;;;;;;13.40;99.90;;;;;;4996679;28;1002;-54
2021/11/04 04:01:44;;;;;;;;;;;13.40;99.90;;;;;;4996613;28;1032;-54
2021/11/04 04:04:10;;;;;;;;;;;13.30;99.90;;;;;;4998601;28;1970;-54
2021/11/04 04:06:35;;;;;;;;;;;13.30;99.90;;;;;;4998091;28;825;-54
2021/11/04 04:09:03;;;;;;;;;;;13.30;99.90;;;;;;4998578;28;932;-54
2021/11/04 04:11:29;;;;;;;;;;;13.30;99.90;;;;;;4998434;28;901;-54
2021/11/04 04:13:57;;;;;;;;;;;13.30;99.90;;;;;;4998348;28;835;-54
2021/11/04 04:16:23;;;;;;;;;;;13.30;99.90;;;;;;4998710;28;981;-54
2021/11/04 04:18:50;;;;;;;;;;;13.30;99.90;;;;;;4998299;28;842;-54
2021/11/04 04:21:16;;;;;;;;;;;13.30;99.90;;;;;;4998165;28;812;-54
2021/11/04 04:23:43;;;;;;;;;;;13.30;99.90;;;;;;4998153;28;1902;-54
2021/11/04 04:26:09;;;;;;;;;;;13.30;99.90;;;;;;4998193;28;874;-54
2021/11/04 04:28:35;;;;;;;;;;;13.30;99.90;;;;;;4998224;28;782;-54
2021/11/04 04:31:01;;;;;;;;;;;13.20;99.90;;;;;;4998165;28;910;-54
2021/11/04 04:33:27;;;;;;;;;;;13.20;99.90;;;;;;4997835;28;1142;-54
2021/11/04 04:35:55;;;;;;;;;;;13.20;99.90;;;;;;4997871;28;872;-54
2021/11/04 04:38:22;;;;;;;;;;;13.20;99.90;;;;;;4997905;28;774;-54
2021/11/04 04:40:48;;;;;;;;;;;13.20;99.90;;;;;;4998074;28;875;-54
2021/11/04 04:43:14;;;;;;;;;;;13.20;99.90;;;;;;4997708;28;1903;-54
2021/11/04 04:45:40;;;;;;;;;;;13.20;99.90;;;;;;4997527;28;906;-54
2021/11/04 04:48:06;;;;;;;;;;;13.20;99.90;;;;;;4997760;28;767;-54
2021/11/04 04:50:32;;;;;;;;;;;13.20;99.90;;;;;;4997792;28;798;-55
2021/11/04 04:52:58;;;;;;;;;;;13.10;99.90;;;;;;4997292;28;762;-54
2021/11/04 04:55:24;;;;;;;;;;;13.10;99.90;;;;;;4995392;28;1303;-55
2021/11/04 04:57:50;;;;;;;;;;;13.10;99.90;;;;;;4997638;28;943;-55
2021/11/04 05:00:37;;;;;;;;;;;13.10;99.90;;;;;;4997074;28;1062;-55
2021/11/04 05:03:05;;;;;;;;;;;13.10;99.90;;;;;;4997402;28;1988;-55
2021/11/04 05:05:31;;;;;;;;;;;13.10;99.90;;;;;;4997409;28;874;-55
2021/11/04 05:07:57;;;;;;;;;;;13.10;99.90;;;;;;4997082;28;1100;-55
2021/11/04 05:10:23;;;;;;;;;;;13.10;99.90;;;;;;4997572;28;838;-55
2021/11/04 05:12:50;;;;;;;;;;;13.10;99.90;;;;;;4997171;28;849;-55
2021/11/04 05:15:16;;;;;;;;;;;13.10;99.90;;;;;;4997302;28;882;-55
2021/11/04 05:17:43;;;;;;;;;;;13.10;99.90;;;;;;4996557;28;830;-54
2021/11/04 05:20:10;;;;;;;;;;;13.00;99.90;;;;;;4997168;28;823;-55
2021/11/04 05:22:37;;;;;;;;;;;13.10;99.90;;;;;;4997324;28;814;-55
2021/11/04 05:25:03;;;;;;;;;;;13.00;99.90;;;;;;4997056;28;838;-55
2021/11/04 05:27:29;;;;;;;;;;;13.00;99.90;;;;;;4996979;28;1193;-55
2021/11/04 05:29:56;;;;;;;;;;;13.00;99.90;;;;;;4996178;28;902;-55
2021/11/04 05:32:22;;;;;;;;;;;13.10;99.90;;;;;;4997183;28;786;-55
2021/11/04 05:34:48;;;;;;;;;;;13.00;99.90;;;;;;4997095;28;900;-55
2021/11/04 05:37:17;;;;;;;;;;;13.00;99.90;;;;;;4996681;28;782;-55
2021/11/04 05:39:43;;;;;;;;;;;13.00;99.90;;;;;;4997042;28;831;-55
2021/11/04 05:42:09;;;;;;;;;;;13.00;99.90;;;;;;4996655;28;894;-55
2021/11/04 05:44:36;;;;;;;;;;;13.00;99.90;;;;;;4996819;28;1910;-55
2021/11/04 05:47:02;;;;;;;;;;;13.00;99.90;;;;;;4995082;28;946;-55
2021/11/04 05:49:28;;;;;;;;;;;13.00;99.90;;;;;;4978880;28;862;-55
2021/11/04 05:51:54;;;;;;;;;;;13.00;99.90;;;;;;4994679;28;1108;-55
2021/11/04 05:54:21;;;;;;;;;;;13.10;99.90;;;;;;4978863;28;1000;-55
2021/11/04 05:56:53;;;;;;;;;;;13.20;99.90;;;;;;4994984;28;965;-56
2021/11/04 05:59:20;;;;;;;;;;;13.30;99.90;;;;;;4995003;28;848;-56
2021/11/04 06:01:47;;;;;;;;;;;13.40;99.90;;;;;;4994915;28;1802;-56
2021/11/04 06:04:13;;;;;;;;;;;13.60;99.90;;;;;;4994651;28;1911;-56
2021/11/04 06:06:39;;;;;;;;;;;13.80;99.90;;;;;;4994832;28;841;-56
2021/11/04 06:09:22;;;;;;;;;;;14.10;99.90;;;;;;4994997;28;783;-56
2021/11/04 06:11:50;;;;;;;;;;;14.30;99.90;;;;;;4994900;28;902;-56
2021/11/04 06:14:24;;;;;;;;;;;14.50;99.90;;;;;;4978018;28;1105;-56
2021/11/04 06:16:51;;;;;;;;;;;14.70;99.90;;;;;;4989295;28;964;-56
2021/11/04 06:19:19;;;;;;;;;;;14.90;99.90;;;;;;4991203;28;815;-56
2021/11/04 06:21:45;;;;;;;;;;;15.00;99.90;;;;;;4990966;28;973;-56
2021/11/04 06:24:11;;;;;;;;;;;15.10;99.90;;;;;;4996166;28;1910;-56
2021/11/04 06:26:38;;;;;;;;;;;15.30;99.90;;;;;;4996286;28;865;-56
2021/11/04 06:29:06;;;;;;;;;;;15.30;99.90;;;;;;4997672;28;796;-56
2021/11/04 06:31:37;;;;;;;;;;;15.40;99.90;;;;;;4995368;28;752;-56
2021/11/04 06:34:04;;;;;;;;;;;15.50;99.90;;;;;;4998816;28;1152;-56
2021/11/04 06:36:30;;;;;;;;;;;15.60;99.90;;;;;;5000016;28;792;-56
2021/11/04 06:38:56;;;;;;;;;;;15.60;99.90;;;;;;5000427;28;794;-56
2021/11/04 06:41:22;;;;;;;;;;;15.70;99.90;;;;;;5000068;28;770;-56
2021/11/04 06:43:48;;;;;;;;;;;15.70;99.90;;;;;;5000007;28;1972;-56
2021/11/04 06:46:15;;;;;;;;;;;15.70;99.90;;;;;;4999833;28;923;-55
2021/11/04 06:48:42;;;;;;;;;;;15.70;99.90;;;;;;4982084;28;930;-56
2021/11/04 06:51:15;;;;;;;;;;;15.60;99.90;;;;;;5000381;28;873;-56
2021/11/04 06:53:58;;;;;;;;;;;15.60;99.90;;;;;;4951432;28;1028;-55
2021/11/04 06:56:25;;;;;;;;;;;15.60;99.90;;;;;;4999727;28;1108;-56
2021/11/04 06:58:52;;;;;;;;;;;15.50;99.90;;;;;;4999778;28;765;-56
2021/11/04 07:01:19;;;;;;;;;;;15.50;99.90;;;;;;4999169;28;1163;-56
2021/11/04 07:03:48;;;;;;;;;;;15.40;99.90;;;;;;4984888;28;1910;-56
2021/11/04 07:06:23;;;;;;;;;;;15.30;99.90;;;;;;4999818;28;853;-56
2021/11/04 07:08:58;;;;;;;;;;;15.30;99.90;;;;;;4982631;28;1037;-56
2021/11/04 07:11:25;;;;;;;;;;;15.20;99.90;;;;;;4999050;28;823;-55
2021/11/04 07:13:51;;;;;;;;;;;15.10;99.90;;;;;;4997376;28;1112;-56
2021/11/04 07:16:21;;;;;;;;;;;15.00;99.90;;;;;;5013713;28;829;-56
2021/11/04 07:18:48;;;;;;;;;;;15.00;99.90;;;;;;4999650;28;815;-56
2021/11/04 07:21:16;;;;;;;;;;;14.90;99.90;;;;;;4999551;28;805;-56
2021/11/04 07:23:51;;;;;;;;;;;14.90;99.90;;;;;;4997031;28;1903;-56
2021/11/04 07:26:19;;;;;;;;;;;14.80;99.90;;;;;;4996318;28;757;-56
2021/11/04 07:28:50;;;;;;;;;;;14.70;99.90;;;;;;4999318;28;814;-56
2021/11/04 07:31:16;;;;;;;;;;;14.70;99.90;;;;;;4991005;28;1332;-56
2021/11/04 07:33:46;;;;;;;;;;;14.70;99.90;;;;;;4999024;28;715;-56
2021/11/04 07:36:14;;;;;;;;;;;14.60;99.90;;;;;;4998574;28;979;-56
2021/11/04 07:38:42;;;;;;;;;;;14.60;99.90;;;;;;4979935;28;835;-56
2021/11/04 07:41:14;;;;;;;;;;;14.50;99.90;;;;;;4994854;28;927;-56
2021/11/04 07:43:42;;;;;;;;;;;14.50;99.90;;;;;;4998935;28;1906;-56
2021/11/04 07:46:09;;;;;;;;;;;14.40;99.90;;;;;;4995806;28;1007;-56
2021/11/04 07:48:35;;;;;;;;;;;14.40;99.90;;;;;;4999016;28;811;-56
2021/11/04 07:51:01;;;;;;;;;;;14.40;99.90;;;;;;4995721;28;1059;-56
2021/11/04 07:53:27;;;;;;;;;;;14.40;99.90;;;;;;4998417;28;1264;-56
2021/11/04 07:55:54;;;;;;;;;;;14.30;99.90;;;;;;4997032;28;1307;-56
2021/11/04 07:58:21;;;;;;;;;;;14.30;99.90;;;;;;4996789;28;1213;-56
2021/11/04 08:00:48;;;;;;;;;;;14.30;99.90;;;;;;4984830;28;1288;-56
2021/11/04 08:03:15;;;;;;;;;;;14.20;99.90;;;;;;4997783;28;1914;-55
2021/11/04 08:05:42;;;;;;;;;;;14.20;99.90;;;;;;4997637;28;1221;-56
2021/11/04 08:08:08;;;;;;;;;;;14.20;99.90;;;;;;4996837;28;1303;-56
2021/11/04 08:10:34;;;;;;;;;;;14.20;99.90;;;;;;4996546;28;1240;-56
2021/11/04 08:13:07;;;;;;;;;;;14.20;99.90;;;;;;4984136;28;1245;-55
2021/11/04 08:15:36;;;;;;;;;;;14.20;99.90;;;;;;4997700;28;1245;-56
2021/11/04 08:18:02;;;;;;;;;;;14.20;99.90;;;;;;4998146;28;1221;-56
2021/11/04 08:20:29;;;;;;;;;;;14.30;99.90;;;;;;4998058;28;998;-56
2021/11/04 08:22:56;;;;;;;;;;;14.30;99.90;;;;;;4998163;28;862;-56
2021/11/04 08:25:26;;;;;;;;;;;14.30;99.90;;;;;;4997996;28;1898;-56
2021/11/04 08:27:52;;;;;;;;;;;14.40;99.90;;;;;;4995057;28;1784;-57
2021/11/04 08:30:18;;;;;;;;;;;14.40;99.90;;;;;;4997409;28;1580;-56
2021/11/04 08:32:44;;;;;;;;;;;14.30;99.90;;;;;;4991762;28;1223;-56
2021/11/04 08:35:10;;;;;;;;;;;14.40;99.90;;;;;;4996932;28;1063;-55
2021/11/04 08:37:36;;;;;;;;;;;14.50;99.90;;;;;;4941642;28;1331;-55
2021/11/04 08:40:05;;;;;;;;;;;14.60;99.90;;;;;;4959011;28;914;-55
2021/11/04 08:42:31;;;;;;;;;;;14.80;99.90;;;;;;4975740;28;894;-57
2021/11/04 08:44:59;;;;;;;;;;;14.80;99.90;;;;;;4941169;28;1959;-56
2021/11/04 08:47:28;;;;;;;;;;;14.90;99.90;;;;;;4957839;28;863;-56
2021/11/04 08:49:55;;;;;;;;;;;14.90;99.90;;;;;;4959087;28;1151;-56
2021/11/04 08:52:24;;;;;;;;;;;14.90;99.90;;;;;;4956420;28;1217;-56
2021/11/04 08:54:50;;;;;;;;;;;15.00;99.90;;;;;;4957654;28;822;-56
2021/11/04 08:57:16;;;;;;;;;;;15.10;99.90;;;;;;4967727;28;1250;-56
2021/11/04 08:59:43;;;;;;;;;;;15.10;99.90;;;;;;4962466;28;1564;-56
2021/11/04 09:02:12;;;;;;;;;;;15.20;99.90;;;;;;4949576;29;1221;-56
2021/11/04 09:04:41;;;;;;;;;;;15.20;99.90;;;;;;4938436;29;1907;-56
2021/11/04 09:07:12;;;;;;;;;;;15.20;99.90;;;;;;4951106;29;1111;-56
2021/11/04 09:09:39;;;;;;;;;;;15.20;99.90;;;;;;4976305;28;876;-56
2021/11/04 09:12:05;;;;;;;;;;;15.30;99.90;;;;;;4977781;28;917;-56
2021/11/04 09:14:31;;;;;;;;;;;15.30;99.90;;;;;;4977626;28;951;-56
2021/11/04 09:16:58;;;;;;;;;;;15.30;99.90;;;;;;4959492;28;1075;-56
2021/11/04 09:19:28;;;;;;;;;;;15.30;99.90;;;;;;4960896;28;1225;-56
2021/11/04 09:21:57;;;;;;;;;;;15.20;99.90;;;;;;4944124;28;1195;-56
2021/11/04 09:24:29;;;;;;;;;;;15.20;99.90;;;;;;4958106;28;1970;-56
2021/11/04 09:26:56;;;;;;;;;;;15.20;99.90;;;;;;4977334;28;921;-55
2021/11/04 09:29:22;;;;;;;;;;;15.10;99.90;;;;;;4977558;28;880;-56
2021/11/04 09:31:48;;;;;;;;;;;15.10;99.90;;;;;;4977281;28;889;-56
2021/11/04 09:34:15;;;;;;;;;;;15.10;99.90;;;;;;4977026;28;965;-56
2021/11/04 09:36:41;;;;;;;;;;;15.00;99.90;;;;;;4973299;28;1185;-56
2021/11/04 09:39:07;;;;;;;;;;;15.00;99.90;;;;;;4972475;28;1135;-56
2021/11/04 09:41:34;;;;;;;;;;;14.90;99.90;;;;;;4977298;28;735;-55
2021/11/04 09:44:03;;;;;;;;;;;14.90;99.90;;;;;;4973179;28;1906;-55
2021/11/04 09:46:29;;;;;;;;;;;14.80;99.90;;;;;;4972847;28;914;-55
2021/11/04 09:48:55;;;;;;;;;;;14.80;99.90;;;;;;4973060;28;751;-56
2021/11/04 09:51:22;;;;;;;;;;;14.70;99.90;;;;;;4977275;28;882;-55
2021/11/04 09:53:49;;;;;;;;;;;14.70;99.90;;;;;;4977256;28;961;-55
2021/11/04 09:56:15;;;;;;;;;;;14.70;99.90;;;;;;4977108;28;805;-56
2021/11/04 09:58:42;;;;;;;;;;;14.70;99.90;;;;;;4977116;28;809;-56
2021/11/04 10:01:21;;;;;;;;;;;14.70;99.90;;;;;;4983787;28;1052;-56
2021/11/04 10:03:47;;;;;;;;;;;14.70;99.90;;;;;;4991122;28;1970;-56
2021/11/04 10:06:20;;;;;;;;;;;14.70;99.90;;;;;;4996662;28;818;-55
2021/11/04 10:08:51;;;;;;;;;;;14.70;99.90;;;;;;4996377;28;855;-55
2021/11/04 10:11:19;;;;;;;;;;;14.70;99.90;;;;;;4995400;28;1016;-54
2021/11/04 10:13:46;;;;;;;;;;;14.70;99.90;;;;;;4973472;28;1518;-54
2021/11/04 10:16:12;;;;;;;;;;;14.70;99.90;;;;;;4977341;28;1293;-54
2021/11/04 10:18:41;;;;;;;;;;;14.80;99.90;;;;;;4996359;28;979;-54
2021/11/04 10:21:07;;;;;;;;;;;14.90;99.90;;;;;;4996297;28;1026;-54
2021/11/04 10:23:46;;;;;;;;;;;15.10;99.90;;;;;;4996098;28;1887;-54
2021/11/04 10:26:13;;;;;;;;;;;15.20;99.90;;;;;;4995444;28;1010;-55
2021/11/04 10:28:43;;;;;;;;;;;15.40;99.90;;;;;;4995923;28;1044;-55
2021/11/04 10:31:10;;;;;;;;;;;15.60;99.90;;;;;;4995536;28;1070;-55
2021/11/04 10:33:38;;;;;;;;;;;15.70;99.90;;;;;;4995865;28;1210;-55
2021/11/04 10:36:05;;;;;;;;;;;15.80;99.90;;;;;;4993732;28;1181;-55
2021/11/04 10:38:50;;;;;;;;;;;16.00;99.90;;;;;;4995793;28;1087;-56
2021/11/04 10:41:20;;;;;;;;;;;16.10;99.90;;;;;;4989711;28;1189;-55
2021/11/04 10:43:46;;;;;;;;;;;16.20;99.90;;;;;;4995475;28;1910;-55
2021/11/04 10:46:13;;;;;;;;;;;16.30;99.90;;;;;;4977669;28;1710;-55
2021/11/04 10:48:41;;;;;;;;;;;16.40;99.90;;;;;;4993313;28;1351;-55
2021/11/04 10:51:15;;;;;;;;;;;16.50;99.90;;;;;;4994696;28;1545;-55
2021/11/04 10:53:42;;;;;;;;;;;16.50;99.90;;;;;;4994198;28;1046;-55
2021/11/04 10:56:07;;;;;;;;;;;16.60;99.90;;;;;;4995313;28;1105;-55
2021/11/04 10:58:34;;;;;;;;;;;16.60;99.90;;;;;;4995671;28;1011;-55
2021/11/04 11:01:01;;;;;;;;;;;16.70;99.90;;;;;;4962863;28;1342;-54
2021/11/04 11:03:28;;;;;;;;;;;16.70;99.90;;;;;;4994998;28;1230;-55
2021/11/04 11:05:59;;;;;;;;;;;16.90;99.90;;;;;;4992519;28;1498;-55
2021/11/04 11:08:26;;;;;;;;;;;17.00;99.90;;;;;;4994364;28;1272;-55
2021/11/04 11:10:55;;;;;;;;;;;17.10;99.90;;;;;;4994072;28;1280;-55
2021/11/04 11:13:23;;;;;;;;;;;17.10;99.90;;;;;;4991440;28;1538;-55
2021/11/04 11:15:59;;;;;;;;;;;17.00;99.90;;;;;;4993424;28;1305;-55
2021/11/04 11:18:25;;;;;;;;;;;17.00;99.90;;;;;;4997339;28;1051;-55
2021/11/04 11:20:52;;;;;;;;;;;16.90;99.90;;;;;;4994288;28;1229;-55
2021/11/04 11:23:19;;;;;;;;;;;16.90;99.90;;;;;;4997559;28;1292;-55
2021/11/04 11:25:47;;;;;;;;;;;16.80;99.90;;;;;;4995245;28;1898;-55
2021/11/04 11:28:13;;;;;;;;;;;16.80;99.90;;;;;;4996234;28;1331;-56
2021/11/04 11:30:39;;;;;;;;;;;16.80;99.90;;;;;;4998574;28;1214;-55
2021/11/04 11:33:17;;;;;;;;;;;16.80;99.90;;;;;;4988164;28;1246;-55
2021/11/04 11:36:02;;;;;;;;;;;16.70;99.90;;;;;;4988477;28;1335;-55
2021/11/04 11:38:30;;;;;;;;;;;16.50;99.90;;;;;;4994671;28;1208;-56
2021/11/04 11:41:02;;;;;;;;;;;16.50;99.90;;;;;;4987515;28;1221;-56
2021/11/04 11:43:48;;;;;;;;;;;16.40;99.90;;;;;;4994108;28;1384;-55
2021/11/04 11:46:15;;;;;;;;;;;16.30;99.90;;;;;;4993764;28;1811;-55
2021/11/04 11:48:40;;;;;;;;;;;16.30;99.90;;;;;;4997940;28;1482;-55
2021/11/04 11:51:06;;;;;;;;;;;16.20;99.90;;;;;;4996166;28;1423;-55
2021/11/04 11:53:37;;;;;;;;;;;16.20;99.90;;;;;;4988927;28;1276;-55
2021/11/04 11:56:06;;;;;;;;;;;16.20;99.90;;;;;;4991118;28;1328;-55
2021/11/04 11:58:44;;;;;;;;;;;16.10;99.90;;;;;;4991317;28;1304;-54
2021/11/04 12:01:14;;;;;;;;;;;16.10;99.90;;;;;;4976230;28;1321;-55
2021/11/04 12:03:41;;;;;;;;;;;16.00;99.90;;;;;;4998136;28;1973;-55
2021/11/04 12:06:25;;;;;;;;;;;16.10;99.90;;;;;;4997470;28;1034;-55
2021/11/04 12:09:01;;;;;;;;;;;16.00;99.90;;;;;;4993646;28;983;-55
2021/11/04 12:11:36;;;;;;;;;;;16.00;99.90;;;;;;4993735;28;1206;-55
2021/11/04 12:14:24;;;;;;;;;;;16.00;99.90;;;;;;4996580;28;1454;-56
2021/11/04 12:17:10;;;;;;;;;;;16.00;99.90;;;;;;4993557;28;1538;-56
2021/11/04 12:19:49;;;;;;;;;;;16.00;99.90;;;;;;4997113;28;1146;-56
2021/11/04 12:22:18;;;;;;;;;;;16.10;99.90;;;;;;4997232;28;1149;-55
2021/11/04 12:25:10;;;;;;;;;;;16.00;99.90;;;;;;4996971;28;1911;-56
2021/11/04 12:27:39;;;;;;;;;;;16.00;99.90;;;;;;4997307;28;989;-55
2021/11/04 12:30:20;;;;;;;;;;;16.00;99.90;;;;;;4997055;28;1204;-55
2021/11/04 12:33:02;;;;;;;;;;;15.90;99.90;;;;;;4975875;28;1522;-55
2021/11/04 12:35:46;;;;;;;;;;;16.00;99.90;;;;;;4991968;28;1245;-55
2021/11/04 12:38:18;;;;;;;;;;;16.10;99.90;;;;;;4996312;28;1630;-55
2021/11/04 12:40:46;;;;;;;;;;;16.20;99.90;;;;;;4996900;28;919;-55
2021/11/04 12:43:13;;;;;;;;;;;16.20;99.90;;;;;;4994928;28;1158;-55
2021/11/04 12:45:45;;;;;;;;;;;16.30;99.90;;;;;;4997067;28;1974;-56
2021/11/04 12:48:12;;;;;;;;;;;16.30;99.90;;;;;;4990111;28;1098;-56
2021/11/04 12:50:39;;;;;;;;;;;16.40;99.90;;;;;;4997037;28;979;-56
2021/11/04 12:53:08;;;;;;;;;;;16.40;99.90;;;;;;4997565;28;967;-56
2021/11/04 12:55:35;;;;;;;;;;;16.50;99.90;;;;;;4994461;28;920;-56
2021/11/04 12:58:05;;;;;;;;;;;16.50;99.90;;;;;;4995744;28;1235;-55
2021/11/04 13:00:32;;;;;;;;;;;16.50;99.90;;;;;;4995479;28;1265;-55
2021/11/04 13:02:58;;;;;;;;;;;16.50;99.90;;;;;;5001300;28;1117;-56
2021/11/04 13:05:25;;;;;;;;;;;16.60;99.90;;;;;;4979711;28;1981;-56
2021/11/04 13:07:55;;;;;;;;;;;16.50;99.90;;;;;;4992258;28;1011;-56
2021/11/04 13:10:25;;;;;;;;;;;16.50;99.90;;;;;;4996267;28;1027;-56
2021/11/04 13:13:10;;;;;;;;;;;16.40;99.90;;;;;;4992595;28;1330;-57
2021/11/04 13:15:38;;;;;;;;;;;16.40;99.90;;;;;;4995076;28;1042;-56
2021/11/04 13:18:06;;;;;;;;;;;16.40;99.90;;;;;;4996818;28;1618;-56
2021/11/04 13:20:42;;;;;;;;;;;16.30;99.90;;;;;;4994988;28;1023;-57
2021/11/04 13:23:12;;;;;;;;;;;16.30;99.90;;;;;;4995767;28;1447;-56
2021/11/04 13:25:46;;;;;;;;;;;16.20;99.90;;;;;;4994883;28;1914;-56
2021/11/04 13:28:20;;;;;;;;;;;16.20;99.90;;;;;;4995889;28;1035;-56
2021/11/04 13:30:51;;;;;;;;;;;16.20;99.90;;;;;;5004040;28;1132;-56
2021/11/04 13:33:18;;;;;;;;;;;16.10;99.90;;;;;;4999139;28;1120;-56
2021/11/04 13:35:46;;;;;;;;;;;16.00;99.90;;;;;;4995495;28;990;-57
2021/11/04 13:38:17;;;;;;;;;;;16.00;99.90;;;;;;5007280;28;1395;-56
2021/11/04 13:40:48;;;;;;;;;;;16.10;99.90;;;;;;4983397;28;1286;-56
2021/11/04 13:43:15;;;;;;;;;;;16.10;99.90;;;;;;4996162;28;833;-56
2021/11/04 13:45:42;;;;;;;;;;;16.10;99.90;;;;;;5010829;28;1981;-56
2021/11/04 13:48:09;;;;;;;;;;;16.10;99.90;;;;;;5002547;28;1036;-55
2021/11/04 13:50:53;;;;;;;;;;;16.20;99.90;;;;;;4996151;28;1202;-55
2021/11/04 13:53:20;;;;;;;;;;;16.30;99.90;;;;;;4989460;28;1206;-55
2021/11/04 13:55:48;;;;;;;;;;;16.40;99.90;;;;;;5013662;28;1092;-56
2021/11/04 13:58:14;;;;;;;;;;;16.40;99.90;;;;;;4996396;28;875;-56
2021/11/04 14:00:41;;;;;;;;;;;16.50;99.90;;;;;;5002510;28;1065;-56
2021/11/04 14:03:12;;;;;;;;;;;16.50;99.90;;;;;;4995466;28;917;-56
2021/11/04 14:05:50;;;;;;;;;;;16.70;99.90;;;;;;4995732;28;1899;-56
2021/11/04 14:08:37;;;;;;;;;;;16.70;99.90;;;;;;4993180;28;911;-56
2021/11/04 14:11:10;;;;;;;;;;;16.80;99.90;;;;;;4996240;28;1196;-56
2021/11/04 14:13:51;;;;;;;;;;;16.80;99.90;;;;;;4994978;28;930;-56
2021/11/04 14:16:21;;;;;;;;;;;16.80;99.90;;;;;;4994261;28;1194;-56
2021/11/04 14:18:47;;;;;;;;;;;16.90;99.90;;;;;;4995390;28;993;-56
2021/11/04 14:21:13;;;;;;;;;;;16.80;99.90;;;;;;4996108;28;951;-56
2021/11/04 14:23:39;;;;;;;;;;;16.80;99.90;;;;;;4996310;28;858;-56
2021/11/04 14:26:05;;;;;;;;;;;16.80;99.90;;;;;;4995083;28;1902;-56
2021/11/04 14:28:31;;;;;;;;;;;16.80;99.90;;;;;;4988637;28;1279;-56
2021/11/04 14:30:57;;;;;;;;;;;16.50;99.90;;;;;;4995037;28;1047;-56
2021/11/04 14:33:23;;;;;;;;;;;16.40;99.90;;;;;;4994810;28;1167;-56
2021/11/04 14:35:49;;;;;;;;;;;16.70;99.90;;;;;;4971639;28;1258;-55
2021/11/04 14:38:14;;;;;;;;;;;17.60;99.90;;;;;;4994492;28;1308;-56
2021/11/04 14:40:40;;;;;;;;;;;18.40;99.90;;;;;;4990854;28;1051;-56
2021/11/04 14:43:06;;;;;;;;;;;19.00;99.90;;;;;;4995767;28;886;-56